Time;durP1;ratioP1;P1;durP2;ratioP2;P2;SDS_P1;SDS_P2;PMS_P1;PMS_P2;Temp;Humidity;BMP_temperature;BMP_pressure;BME280_temperature;BME280_humidity;BME280_pressure;Samples;Min_cycle;Max_cycle;Signal;HPM_P1;HPM_P2
2022/09/12 00:01:04;;;;;;;2.50;0.50;;;20.30;74.90;;;;;;5070974;28;20180;-68
2022/09/12 00:03:35;;;;;;;3.50;0.67;;;20.10;79.70;;;;;;5071262;28;20176;-69
2022/09/12 00:06:09;;;;;;;3.30;0.60;;;20.10;82.40;;;;;;5070928;28;20207;-70
2022/09/12 00:08:36;;;;;;;2.87;0.50;;;20.10;82.30;;;;;;5070946;28;20186;-67
2022/09/12 00:11:12;;;;;;;1.53;0.63;;;20.30;77.30;;;;;;5071001;28;20304;-69
2022/09/12 00:13:43;;;;;;;1.47;0.60;;;20.40;72.40;;;;;;5061116;28;20184;-69
2022/09/12 00:16:24;;;;;;;1.40;0.70;;;20.50;72.60;;;;;;5064365;28;20671;-68
2022/09/12 00:18:52;;;;;;;0.83;0.40;;;20.70;72.00;;;;;;5064431;28;20660;-67
2022/09/12 00:21:20;;;;;;;2.40;0.67;;;20.60;67.10;;;;;;5066010;28;20184;-67
2022/09/12 00:23:49;;;;;;;3.53;0.53;;;21.10;69.00;;;;;;5070699;28;20218;-69
2022/09/12 00:26:18;;;;;;;2.60;0.60;;;21.60;68.30;;;;;;5068587;28;20754;-68
2022/09/12 00:28:45;;;;;;;2.37;0.87;;;21.90;65.80;;;;;;5067068;28;20207;-69
2022/09/12 00:31:16;;;;;;;1.67;0.70;;;22.10;67.00;;;;;;5066147;28;20183;-69
2022/09/12 00:33:44;;;;;;;1.53;0.40;;;22.50;65.10;;;;;;5076428;28;20183;-66
2022/09/12 00:36:17;;;;;;;1.23;0.50;;;22.30;62.30;;;;;;5072589;28;20191;-67
2022/09/12 00:38:45;;;;;;;6.97;0.70;;;21.70;57.00;;;;;;5064851;28;20550;-70
2022/09/12 00:41:28;;;;;;;1.67;0.70;;;21.80;64.70;;;;;;5069751;28;20199;-68
2022/09/12 00:43:58;;;;;;;2.93;0.50;;;;;;;;;;5059717;28;20246;-68
2022/09/12 00:46:38;;;;;;;1.00;0.40;;;22.20;53.40;;;;;;5054609;28;20210;-68
2022/09/12 00:49:28;;;;;;;2.63;0.60;;;22.30;56.70;;;;;;5069840;28;20180;-69
2022/09/12 00:52:24;;;;;;;5.13;0.60;;;22.60;59.80;;;;;;5070577;28;20190;-68
2022/09/12 00:54:57;;;;;;;0.67;0.43;;;22.30;57.40;;;;;;5045734;28;20198;-69
2022/09/12 00:57:29;;;;;;;1.70;0.40;;;22.90;59.00;;;;;;5074353;28;20184;-70
2022/09/12 01:00:12;;;;;;;1.00;0.60;;;22.70;56.40;;;;;;5074041;28;20191;-70
2022/09/12 01:02:40;;;;;;;2.50;0.40;;;22.70;55.00;;;;;;5074165;28;20187;-68
2022/09/12 01:05:09;;;;;;;3.57;0.60;;;23.10;55.00;;;;;;5070248;28;20512;-68
2022/09/12 01:07:38;;;;;;;2.50;0.50;;;23.60;53.00;;;;;;5058694;28;20226;-68
2022/09/12 01:10:07;;;;;;;1.97;0.60;;;23.40;57.80;;;;;;5061911;28;20202;-67
2022/09/12 01:12:36;;;;;;;1.80;0.50;;;23.90;56.50;;;;;;5073892;28;20180;-67
2022/09/12 01:15:04;;;;;;;1.47;0.57;;;24.10;54.10;;;;;;5073867;28;20187;-70
2022/09/12 01:18:16;;;;;;;1.03;0.60;;;23.50;51.10;;;;;;5053931;28;20165;-71
2022/09/12 01:21:06;;;;;;;2.40;0.43;;;23.50;52.90;;;;;;5010677;28;20200;-67
2022/09/12 01:23:51;;;;;;;2.07;0.60;;;23.50;52.20;;;;;;5053512;28;20232;-66
2022/09/12 01:26:50;;;;;;;2.67;0.70;;;23.10;50.70;;;;;;5052956;28;20565;-67
2022/09/12 01:29:38;;;;;;;1.03;0.50;;;22.80;52.30;;;;;;5070282;28;20660;-69
2022/09/12 01:32:09;;;;;;;1.07;0.47;;;23.10;53.10;;;;;;5073664;28;20595;-71
2022/09/12 01:35:05;;;;;;;1.23;0.40;;;23.90;54.80;;;;;;5073504;28;20179;-70
2022/09/12 01:37:57;;;;;;;1.60;0.60;;;23.40;51.30;;;;;;5073569;28;20643;-72
2022/09/12 01:40:31;;;;;;;1.80;0.60;;;22.90;48.00;;;;;;5072406;28;20263;-68
2022/09/12 01:43:03;;;;;;;1.70;0.70;;;22.80;51.00;;;;;;5063694;28;20176;-69
2022/09/12 01:45:35;;;;;;;2.40;0.70;;;22.40;48.60;;;;;;5066505;28;20192;-69
2022/09/12 01:48:19;;;;;;;1.43;0.60;;;22.00;51.90;;;;;;5070965;28;20194;-67
2022/09/12 01:51:31;;;;;;;2.33;0.60;;;22.00;50.40;;;;;;5072419;28;20172;-71
2022/09/12 01:54:10;;;;;;;1.50;0.77;;;22.70;56.00;;;;;;5038515;28;20195;-68
2022/09/12 01:56:41;;;;;;;3.27;0.73;;;23.40;52.10;;;;;;5073466;28;20233;-68
2022/09/12 01:59:20;;;;;;;2.33;0.70;;;23.40;50.50;;;;;;5068262;28;20186;-67
2022/09/12 02:02:11;;;;;;;1.33;0.73;;;22.90;51.10;;;;;;5057458;28;20673;-69
2022/09/12 02:04:59;;;;;;;0.60;0.50;;;22.60;51.70;;;;;;5036053;28;20218;-71
2022/09/12 02:07:35;;;;;;;0.73;0.50;;;23.00;50.80;;;;;;5065546;28;20311;-68
2022/09/12 02:10:14;;;;;;;1.73;0.80;;;23.30;52.50;;;;;;5072044;28;20906;-67
2022/09/12 02:13:12;;;;;;;0.90;0.60;;;23.00;51.00;;;;;;5071994;28;20599;-71
2022/09/12 02:15:49;;;;;;;3.27;1.00;;;22.50;51.60;;;;;;5072422;28;20320;-71
2022/09/12 02:18:19;;;;;;;3.53;0.77;;;22.70;52.00;;;;;;5072300;28;20183;-70
2022/09/12 02:20:51;;;;;;;1.20;0.50;;;23.20;51.80;;;;;;5070484;28;20645;-68
2022/09/12 02:23:28;;;;;;;2.47;0.70;;;23.60;52.60;;;;;;5072391;28;20220;-68
2022/09/12 02:26:05;;;;;;;1.10;0.77;;;23.80;51.00;;;;;;5067188;28;20220;-67
2022/09/12 02:28:37;;;;;;;2.07;0.83;;;23.70;49.30;;;;;;5072267;28;20202;-66
2022/09/12 02:31:23;;;;;;;4.60;1.20;;;24.10;51.10;;;;;;5062150;28;20176;-67
2022/09/12 02:34:20;;;;;;;2.87;0.80;;;23.90;45.50;;;;;;5062039;28;20584;-68
2022/09/12 02:37:22;;;;;;;1.20;0.90;;;23.80;49.10;;;;;;5059419;28;20180;-67
2022/09/12 02:39:54;;;;;;;3.73;1.27;;;23.80;48.30;;;;;;5062451;28;20218;-67
2022/09/12 02:42:23;;;;;;;1.83;1.20;;;23.90;48.80;;;;;;5067490;28;20934;-71
2022/09/12 02:44:53;;;;;;;1.83;0.80;;;24.10;47.40;;;;;;5070719;28;20197;-69
2022/09/12 02:47:31;;;;;;;1.67;0.70;;;23.50;47.20;;;;;;5070605;28;20246;-67
2022/09/12 02:49:59;;;;;;;1.30;0.60;;;23.10;48.70;;;;;;5063363;28;20270;-70
2022/09/12 02:52:31;;;;;;;2.07;1.10;;;22.70;49.80;;;;;;5072032;28;20256;-67
2022/09/12 02:54:59;;;;;;;2.57;1.20;;;23.00;48.10;;;;;;5066223;28;20238;-69
2022/09/12 02:57:26;;;;;;;1.93;1.10;;;23.20;49.90;;;;;;5052484;28;20184;-67
2022/09/12 02:59:58;;;;;;;4.80;1.40;;;23.10;49.30;;;;;;5067467;28;20194;-68
2022/09/12 03:02:41;;;;;;;1.97;1.17;;;23.10;50.80;;;;;;5064166;28;20180;-73
2022/09/12 03:05:27;;;;;;;2.17;1.00;;;23.40;49.00;;;;;;5064046;28;20229;-70
2022/09/12 03:08:13;;;;;;;3.60;1.20;;;23.50;49.30;;;;;;5066754;28;20218;-71
2022/09/12 03:11:05;;;;;;;4.63;1.30;;;23.50;49.40;;;;;;5051869;28;20184;-68
2022/09/12 03:13:36;;;;;;;5.20;1.40;;;23.50;49.30;;;;;;5056634;28;20682;-66
2022/09/12 03:16:46;;;;;;;7.90;1.20;;;23.30;49.80;;;;;;5057704;28;20183;-67
2022/09/12 03:19:47;;;;;;;2.23;1.20;;;22.50;48.60;;;;;;5011914;28;20210;-67
2022/09/12 03:22:39;;;;;;;1.40;0.80;;;23.00;50.00;;;;;;5071624;28;20185;-66
2022/09/12 03:25:19;;;;;;;1.20;0.83;;;23.40;47.60;;;;;;5071184;28;20240;-67
2022/09/12 03:28:20;;;;;;;1.70;0.90;;;23.30;51.10;;;;;;5071209;28;20306;-67
2022/09/12 03:30:53;;;;;;;2.70;0.77;;;23.70;49.70;;;;;;5070997;28;20239;-66
2022/09/12 03:33:23;;;;;;;2.40;0.60;;;23.90;48.80;;;;;;5071527;28;20258;-68
2022/09/12 03:35:51;;;;;;;0.80;0.53;;;23.60;48.90;;;;;;5071374;28;20179;-72
2022/09/12 03:38:20;;;;;;;3.40;0.60;;;23.60;48.60;;;;;;5066899;28;20659;-69
2022/09/12 03:40:48;;;;;;;3.63;0.70;;;23.40;48.90;;;;;;5065414;28;20202;-69
2022/09/12 03:43:15;;;;;;;1.60;0.67;;;23.10;47.70;;;;;;5054626;28;20224;-70
2022/09/12 03:45:43;;;;;;;0.70;0.50;;;23.10;44.90;;;;;;5062316;28;20190;-67
2022/09/12 03:48:11;;;;;;;1.23;0.67;;;21.80;48.40;;;;;;5053813;28;20185;-71
2022/09/12 03:50:38;;;;;;;1.47;0.50;;;21.50;51.30;;;;;;5071927;28;20289;-67
2022/09/12 03:53:06;;;;;;;0.97;0.47;;;21.90;51.10;;;;;;5075329;28;20270;-67
2022/09/12 03:55:35;;;;;;;4.00;0.70;;;22.40;51.90;;;;;;5075505;28;20225;-67
2022/09/12 03:58:03;;;;;;;1.47;0.60;;;22.50;51.50;;;;;;5075198;28;20188;-68
2022/09/12 04:00:32;;;;;;;1.23;0.60;;;22.40;49.60;;;;;;5074999;28;20180;-67
2022/09/12 04:02:59;;;;;;;1.70;0.70;;;22.40;48.60;;;;;;5075182;28;20180;-67
2022/09/12 04:05:27;;;;;;;0.90;0.70;;;22.10;48.70;;;;;;5074997;28;20557;-69
2022/09/12 04:07:55;;;;;;;1.43;0.60;;;22.00;50.50;;;;;;5074810;28;20591;-70
2022/09/12 04:10:24;;;;;;;2.60;0.63;;;22.60;50.30;;;;;;5074306;28;20202;-68
2022/09/12 04:12:51;;;;;;;2.93;0.90;;;22.80;48.10;;;;;;5075194;28;20183;-68
2022/09/12 04:15:19;;;;;;;0.77;0.53;;;22.50;49.30;;;;;;5074983;28;20172;-68
2022/09/12 04:17:47;;;;;;;5.27;0.70;;;22.30;49.60;;;;;;5074246;28;20283;-69
2022/09/12 04:20:15;;;;;;;1.87;0.70;;;22.10;48.90;;;;;;5074611;28;20677;-67
2022/09/12 04:22:43;;;;;;;0.70;0.60;;;22.10;51.70;;;;;;5075016;28;20171;-66
2022/09/12 04:25:12;;;;;;;1.87;0.60;;;22.20;48.90;;;;;;5074591;28;20223;-66
2022/09/12 04:27:40;;;;;;;1.30;0.57;;;21.70;49.90;;;;;;5074626;28;20220;-65
2022/09/12 04:30:08;;;;;;;0.60;0.60;;;21.40;51.40;;;;;;5074348;28;20194;-69
2022/09/12 04:32:36;;;;;;;1.43;1.00;;;21.60;49.60;;;;;;5074574;28;20190;-69
2022/09/12 04:35:04;;;;;;;1.13;0.80;;;21.90;51.90;;;;;;5074498;28;20221;-67
2022/09/12 04:37:32;;;;;;;0.70;0.50;;;22.00;51.70;;;;;;5074316;28;20183;-67
2022/09/12 04:40:00;;;;;;;1.40;0.90;;;21.80;49.20;;;;;;5074235;28;20194;-68
2022/09/12 04:42:29;;;;;;;2.03;1.13;;;21.90;50.70;;;;;;5074259;28;20171;-71
2022/09/12 04:44:56;;;;;;;1.60;1.23;;;21.90;49.30;;;;;;5074134;28;20201;-68
2022/09/12 04:47:24;;;;;;;1.50;1.40;;;21.90;49.80;;;;;;5074217;28;20208;-68
2022/09/12 04:49:56;;;;;;;2.03;1.17;;;22.40;51.60;;;;;;5074160;28;20179;-70
2022/09/12 04:52:23;;;;;;;2.03;1.10;;;22.30;50.60;;;;;;5074302;28;20275;-68
2022/09/12 04:54:52;;;;;;;1.33;1.10;;;22.20;51.40;;;;;;5074192;28;20605;-70
2022/09/12 04:57:19;;;;;;;0.53;0.50;;;22.20;51.10;;;;;;5073544;28;20168;-70
2022/09/12 04:59:50;;;;;;;1.23;0.70;;;22.20;50.30;;;;;;5073804;28;20252;-69
2022/09/12 05:02:18;;;;;;;1.77;1.00;;;22.00;51.20;;;;;;5072961;28;20551;-68
2022/09/12 05:04:46;;;;;;;1.23;0.90;;;22.00;50.70;;;;;;5074136;28;20750;-68
2022/09/12 05:07:18;;;;;;;1.87;0.73;;;21.90;54.20;;;;;;5073726;28;20223;-70
2022/09/12 05:09:46;;;;;;;0.70;0.70;;;22.00;52.20;;;;;;5074037;28;20177;-68
2022/09/12 05:12:14;;;;;;;1.50;1.00;;;22.00;51.20;;;;;;5073976;28;20191;-67
2022/09/12 05:14:42;;;;;;;5.90;3.57;;;21.90;55.10;;;;;;5074048;28;20225;-68
2022/09/12 05:17:11;;;;;;;6.17;3.97;;;21.70;53.10;;;;;;5074105;28;20704;-70
2022/09/12 05:19:40;;;;;;;5.93;3.80;;;21.70;54.60;;;;;;5072855;28;20187;-70
2022/09/12 05:22:09;;;;;;;14.47;6.83;;;21.90;54.20;;;;;;5072583;28;20184;-71
2022/09/12 05:24:38;;;;;;;10.60;6.13;;;21.60;51.10;;;;;;5073616;28;20219;-69
2022/09/12 05:27:10;;;;;;;9.33;6.20;;;21.20;52.60;;;;;;5073150;28;20215;-68
2022/09/12 05:29:37;;;;;;;9.53;6.60;;;21.30;53.30;;;;;;5073862;28;20227;-68
2022/09/12 05:32:05;;;;;;;9.27;4.77;;;21.20;53.70;;;;;;5073744;28;20199;-68
2022/09/12 05:34:33;;;;;;;6.90;4.57;;;21.30;56.50;;;;;;5073784;28;20175;-67
2022/09/12 05:37:06;;;;;;;10.17;4.03;;;21.60;57.90;;;;;;5073396;28;20181;-69
2022/09/12 05:39:34;;;;;;;2.73;1.83;;;21.70;57.30;;;;;;5073764;28;20577;-67
2022/09/12 05:42:09;;;;;;;1.30;0.80;;;21.90;54.80;;;;;;5073505;28;20639;-66
2022/09/12 05:44:37;;;;;;;1.37;0.80;;;21.70;54.40;;;;;;5073203;28;20191;-66
2022/09/12 05:47:04;;;;;;;1.60;1.07;;;21.50;52.10;;;;;;5073322;28;20209;-69
2022/09/12 05:49:35;;;;;;;1.20;0.80;;;21.20;53.90;;;;;;5072642;28;20262;-68
2022/09/12 05:52:04;;;;;;;2.67;0.70;;;21.00;52.60;;;;;;5073212;28;20205;-68
2022/09/12 05:54:32;;;;;;;2.27;0.97;;;20.70;55.20;;;;;;5073557;28;20228;-67
2022/09/12 05:57:00;;;;;;;2.10;1.10;;;20.50;55.10;;;;;;5072941;28;20249;-70
2022/09/12 05:59:28;;;;;;;2.50;1.13;;;20.40;54.30;;;;;;5072656;28;20187;-69
2022/09/12 06:01:55;;;;;;;1.30;1.00;;;20.20;54.80;;;;;;5073105;28;20176;-68
2022/09/12 06:04:26;;;;;;;1.73;0.73;;;20.20;54.40;;;;;;5072650;28;20180;-68
2022/09/12 06:06:54;;;;;;;2.87;1.00;;;20.40;54.00;;;;;;5072574;28;20236;-68
2022/09/12 06:09:24;;;;;;;1.17;0.80;;;20.50;54.90;;;;;;5072836;28;20194;-68
2022/09/12 06:11:52;;;;;;;4.60;1.43;;;20.50;54.20;;;;;;5072166;28;20514;-67
2022/09/12 06:14:21;;;;;;;2.90;1.03;;;20.50;54.10;;;;;;5072866;28;20187;-68
2022/09/12 06:16:49;;;;;;;1.80;0.87;;;20.50;55.90;;;;;;5072997;28;20262;-70
2022/09/12 06:19:19;;;;;;;1.80;1.07;;;20.40;54.50;;;;;;5072717;28;20530;-69
2022/09/12 06:21:48;;;;;;;1.40;0.70;;;20.20;56.60;;;;;;5072877;28;20180;-67
2022/09/12 06:24:17;;;;;;;0.90;0.80;;;20.00;56.00;;;;;;5072520;28;20235;-69
2022/09/12 06:26:46;;;;;;;4.70;0.90;;;19.90;58.50;;;;;;5071385;28;20298;-68
2022/09/12 06:29:14;;;;;;;1.73;0.90;;;19.70;56.30;;;;;;5072210;28;20217;-69
2022/09/12 06:31:44;;;;;;;1.30;0.80;;;19.60;55.90;;;;;;5072587;28;20644;-68
2022/09/12 06:34:14;;;;;;;1.67;0.80;;;19.50;56.30;;;;;;5072112;28;20225;-70
2022/09/12 06:36:44;;;;;;;0.80;0.60;;;19.60;55.90;;;;;;5071876;28;20186;-70
2022/09/12 06:39:15;;;;;;;3.20;0.87;;;19.60;57.60;;;;;;5072147;28;20190;-68
2022/09/12 06:41:47;;;;;;;0.67;0.63;;;19.50;58.00;;;;;;5072325;28;20530;-69
2022/09/12 06:44:18;;;;;;;0.80;0.70;;;19.50;63.40;;;;;;5072027;28;20187;-68
2022/09/12 06:46:46;;;;;;;2.10;0.60;;;19.50;62.30;;;;;;5071261;28;20221;-70
2022/09/12 06:49:14;;;;;;;2.10;0.70;;;19.50;62.10;;;;;;5071673;28;20206;-69
2022/09/12 06:51:42;;;;;;;3.33;0.80;;;19.40;61.60;;;;;;5071975;28;20184;-69
2022/09/12 06:54:18;;;;;;;3.73;0.70;;;19.40;61.80;;;;;;5068058;28;20184;-66
2022/09/12 06:56:46;;;;;;;1.70;0.73;;;19.30;61.10;;;;;;5071368;28;20317;-67
2022/09/12 06:59:14;;;;;;;1.17;0.80;;;19.20;63.70;;;;;;5070559;28;20533;-66
2022/09/12 07:01:43;;;;;;;1.50;0.70;;;19.10;63.80;;;;;;5067136;28;20187;-68
2022/09/12 07:04:11;;;;;;;1.10;0.60;;;19.00;62.10;;;;;;5071111;28;20214;-69
2022/09/12 07:06:42;;;;;;;0.93;0.60;;;18.90;63.80;;;;;;5071364;28;20235;-68
2022/09/12 07:09:15;;;;;;;2.20;0.80;;;18.90;64.20;;;;;;5071832;28;20249;-67
2022/09/12 07:11:43;;;;;;;0.90;0.67;;;18.90;66.40;;;;;;5071851;28;20667;-67
2022/09/12 07:14:13;;;;;;;0.83;0.70;;;18.80;67.50;;;;;;5071415;28;20245;-70
2022/09/12 07:16:44;;;;;;;0.80;0.60;;;18.70;69.10;;;;;;5071880;28;20638;-70
2022/09/12 07:19:11;;;;;;;4.53;0.83;;;18.60;66.40;;;;;;5071667;28;20183;-67
2022/09/12 07:21:40;;;;;;;1.47;0.77;;;18.50;65.40;;;;;;5070582;28;20722;-68
2022/09/12 07:24:09;;;;;;;2.03;0.73;;;18.50;64.00;;;;;;5071092;28;20232;-69
2022/09/12 07:26:38;;;;;;;1.47;0.80;;;18.50;64.10;;;;;;5071616;28;20203;-70
2022/09/12 07:29:08;;;;;;;1.13;0.73;;;18.40;66.90;;;;;;5071384;28;20276;-69
2022/09/12 07:31:35;;;;;;;1.17;0.80;;;18.30;65.30;;;;;;5071223;28;20615;-68
2022/09/12 07:34:05;;;;;;;1.27;0.73;;;18.30;66.40;;;;;;5071385;28;20610;-68
2022/09/12 07:36:34;;;;;;;1.60;0.73;;;18.20;66.40;;;;;;5071697;28;20283;-66
2022/09/12 07:39:01;;;;;;;1.43;0.83;;;18.10;68.00;;;;;;5070861;28;20553;-67
2022/09/12 07:41:32;;;;;;;1.13;0.90;;;18.10;66.60;;;;;;5071337;28;20580;-68
2022/09/12 07:44:02;;;;;;;3.23;1.00;;;18.00;67.50;;;;;;5071420;28;20533;-67
2022/09/12 07:46:31;;;;;;;1.10;0.83;;;18.00;69.60;;;;;;5071479;28;20264;-67
2022/09/12 07:49:00;;;;;;;1.80;1.40;;;18.00;70.90;;;;;;5071607;28;20528;-67
2022/09/12 07:51:30;;;;;;;1.33;1.10;;;17.90;74.20;;;;;;5070970;28;20184;-69
2022/09/12 07:53:58;;;;;;;1.37;1.00;;;17.90;73.00;;;;;;5071701;28;20569;-66
2022/09/12 07:56:28;;;;;;;1.33;0.90;;;17.80;74.10;;;;;;5071318;28;20581;-68
2022/09/12 07:58:56;;;;;;;2.03;0.70;;;17.80;78.60;;;;;;5068932;28;20659;-69
2022/09/12 08:01:25;;;;;;;1.70;0.70;;;17.70;76.60;;;;;;5071283;28;20179;-67
2022/09/12 08:03:58;;;;;;;3.80;0.97;;;17.70;76.20;;;;;;5069859;28;20276;-70
2022/09/12 08:06:32;;;;;;;2.67;1.00;;;17.70;79.80;;;;;;5071299;28;20211;-67
2022/09/12 08:09:00;;;;;;;1.33;1.10;;;17.70;76.70;;;;;;5071307;28;20186;-67
2022/09/12 08:11:30;;;;;;;1.33;1.00;;;17.70;78.90;;;;;;5069648;28;20179;-69
2022/09/12 08:14:04;;;;;;;0.90;0.60;;;17.60;82.30;;;;;;5071097;28;20633;-67
2022/09/12 08:16:32;;;;;;;1.37;1.00;;;17.60;80.20;;;;;;5071351;28;20180;-68
2022/09/12 08:19:03;;;;;;;1.27;0.70;;;17.50;81.90;;;;;;5071446;28;20180;-67
2022/09/12 08:21:33;;;;;;;1.03;0.90;;;17.40;85.50;;;;;;5071319;28;20194;-67
2022/09/12 08:24:03;;;;;;;3.23;1.20;;;17.40;86.90;;;;;;5071076;28;20259;-69
2022/09/12 08:26:32;;;;;;;4.00;0.70;;;17.30;87.10;;;;;;5070502;28;20216;-68
2022/09/12 08:29:01;;;;;;;1.00;0.90;;;17.20;88.60;;;;;;5070944;28;20176;-68
2022/09/12 08:31:35;;;;;;;1.60;0.70;;;17.20;90.00;;;;;;5069828;28;20188;-68
2022/09/12 08:34:04;;;;;;;1.47;0.90;;;17.10;90.60;;;;;;5071709;28;20230;-68
2022/09/12 08:36:32;;;;;;;3.13;0.90;;;17.10;91.80;;;;;;5074745;28;20211;-68
2022/09/12 08:39:04;;;;;;;3.93;1.27;;;17.00;93.80;;;;;;5075008;28;20547;-68
2022/09/12 08:41:40;;;;;;;6.20;1.80;;;16.90;93.00;;;;;;5073343;28;20242;-69
2022/09/12 08:44:50;;;;;;;2.23;1.40;;;16.90;94.60;;;;;;5074843;28;20187;-67
2022/09/12 08:47:20;;;;;;;2.90;1.30;;;16.80;96.00;;;;;;5074860;28;20219;-69
2022/09/12 08:50:08;;;;;;;1.70;1.40;;;16.70;98.30;;;;;;5074690;28;20203;-68
2022/09/12 08:52:54;;;;;;;3.33;1.53;;;16.70;97.80;;;;;;5054864;28;20184;-70
2022/09/12 08:55:30;;;;;;;2.60;1.40;;;16.60;99.30;;;;;;5054938;28;20180;-68
2022/09/12 08:57:59;;;;;;;1.63;1.03;;;16.50;99.90;;;;;;5054588;28;20668;-68
2022/09/12 09:01:04;;;;;;;3.87;1.40;;;16.50;99.90;;;;;;5058368;28;20176;-68
2022/09/12 09:03:56;;;;;;;2.23;1.03;;;16.40;99.90;;;;;;5074680;28;20180;-66
2022/09/12 09:06:58;;;;;;;1.00;0.80;;;16.50;99.90;;;;;;5054561;28;20243;-68
2022/09/12 09:09:41;;;;;;;1.00;0.80;;;16.40;99.90;;;;;;5054406;28;20229;-69
2022/09/12 09:12:39;;;;;;;4.10;1.13;;;16.30;99.90;;;;;;5073052;28;20253;-66
2022/09/12 09:15:28;;;;;;;0.77;0.77;;;16.30;99.90;;;;;;5074403;28;20561;-68
2022/09/12 09:18:05;;;;;;;8.07;1.33;;;16.20;99.90;;;;;;5074387;28;20176;-67
2022/09/12 09:20:46;;;;;;;1.80;1.27;;;16.10;99.90;;;;;;5074062;28;20199;-67
2022/09/12 09:23:16;;;;;;;2.07;1.10;;;16.10;99.90;;;;;;5074146;28;20389;-70
2022/09/12 09:26:00;;;;;;;1.80;0.90;;;16.00;99.90;;;;;;5074209;28;20206;-67
2022/09/12 09:28:34;;;;;;;2.23;1.30;;;16.00;99.90;;;;;;5074279;28;20179;-67
2022/09/12 09:31:03;;;;;;;1.30;0.90;;;15.90;99.90;;;;;;5073209;28;20194;-67
2022/09/12 09:33:36;;;;;;;2.40;1.00;;;15.80;99.90;;;;;;5074313;28;20644;-67
2022/09/12 09:36:28;;;;;;;1.70;1.10;;;15.70;99.90;;;;;;5073190;28;20176;-68
2022/09/12 09:39:02;;;;;;;2.23;0.97;;;15.60;99.90;;;;;;5074168;28;20843;-69
2022/09/12 09:41:36;;;;;;;1.40;1.00;;;15.50;99.90;;;;;;5073480;28;20175;-67
2022/09/12 09:44:04;;;;;;;3.10;1.40;;;15.50;99.90;;;;;;5075235;28;20191;-68
2022/09/12 09:46:32;;;;;;;2.20;1.37;;;15.40;99.90;;;;;;5073913;28;20285;-70
2022/09/12 09:49:02;;;;;;;2.37;1.10;;;15.30;99.90;;;;;;5075389;28;20221;-71
2022/09/12 09:51:35;;;;;;;1.73;1.00;;;15.30;99.90;;;;;;5074862;28;20541;-70
2022/09/12 09:54:24;;;;;;;1.80;1.10;;;15.20;99.90;;;;;;5077497;28;20179;-69
2022/09/12 09:56:55;;;;;;;2.83;0.83;;;15.10;99.90;;;;;;5077240;28;20195;-69
2022/09/12 09:59:32;;;;;;;1.10;0.90;;;15.10;99.90;;;;;;5073465;28;20196;-69
2022/09/12 10:02:22;;;;;;;2.57;0.83;;;15.00;99.90;;;;;;5075595;28;20187;-67
2022/09/12 10:04:58;;;;;;;1.33;1.10;;;14.90;99.90;;;;;;5076681;28;20178;-66
2022/09/12 10:07:26;;;;;;;1.60;1.13;;;14.80;99.90;;;;;;5057899;28;20219;-71
2022/09/12 10:10:15;;;;;;;2.70;1.20;;;14.80;99.90;;;;;;5075557;28;20266;-71
2022/09/12 10:12:50;;;;;;;1.20;0.90;;;14.80;99.90;;;;;;5073940;28;20718;-68
2022/09/12 10:15:25;;;;;;;1.40;1.20;;;14.80;99.90;;;;;;5074828;28;20194;-68
2022/09/12 10:17:58;;;;;;;1.40;0.90;;;14.70;99.90;;;;;;5074537;28;20202;-68
2022/09/12 10:20:34;;;;;;;1.80;0.80;;;14.60;99.90;;;;;;5073606;28;20187;-70
2022/09/12 10:23:23;;;;;;;1.20;1.00;;;14.50;99.90;;;;;;5074528;28;20247;-69
2022/09/12 10:26:03;;;;;;;1.60;0.90;;;14.40;99.90;;;;;;5074612;28;20200;-69
2022/09/12 10:28:42;;;;;;;2.30;1.20;;;14.40;99.90;;;;;;5074999;28;20198;-68
2022/09/12 10:31:14;;;;;;;1.00;0.90;;;14.40;99.90;;;;;;5073354;28;20209;-67
2022/09/12 10:33:51;;;;;;;2.20;1.37;;;14.40;99.90;;;;;;5074541;28;20693;-68
2022/09/12 10:36:25;;;;;;;1.80;1.20;;;14.40;99.90;;;;;;5057633;28;20176;-70
2022/09/12 10:38:59;;;;;;;1.97;0.80;;;14.30;99.90;;;;;;5073616;28;20242;-73
2022/09/12 10:41:34;;;;;;;2.60;1.50;;;14.30;99.90;;;;;;5074368;28;20578;-69
2022/09/12 10:44:14;;;;;;;2.97;1.47;;;14.30;99.90;;;;;;5074371;28;20172;-68
2022/09/12 10:46:42;;;;;;;1.73;1.03;;;14.10;99.90;;;;;;5074050;28;20284;-70
2022/09/12 10:49:30;;;;;;;2.57;1.10;;;14.00;99.90;;;;;;5074429;28;20190;-68
2022/09/12 10:52:27;;;;;;;1.97;1.10;;;13.80;99.90;;;;;;5074570;28;20177;-68
2022/09/12 10:54:55;;;;;;;4.87;1.20;;;13.60;99.90;;;;;;5073339;28;20590;-69
2022/09/12 10:57:40;;;;;;;1.63;1.03;;;13.40;99.90;;;;;;5073627;28;20206;-69
2022/09/12 11:00:18;;;;;;;2.00;1.17;;;13.20;99.90;;;;;;5074005;28;20214;-70
2022/09/12 11:02:45;;;;;;;1.63;1.10;;;13.20;99.90;;;;;;5072554;28;20268;-70
2022/09/12 11:05:38;;;;;;;1.77;1.00;;;13.10;99.90;;;;;;5073844;28;20209;-69
2022/09/12 11:08:42;;;;;;;2.80;1.30;;;13.10;99.90;;;;;;5074508;28;20301;-68
2022/09/12 11:11:31;;;;;;;3.10;1.03;;;13.10;99.90;;;;;;5073520;28;20190;-70
2022/09/12 11:14:24;;;;;;;2.07;1.00;;;12.90;99.90;;;;;;5074418;28;20177;-71
2022/09/12 11:17:22;;;;;;;2.23;1.00;;;12.80;99.90;;;;;;5067253;28;20193;-69
2022/09/12 11:20:04;;;;;;;2.40;1.20;;;12.70;99.90;;;;;;5073235;28;20213;-68
2022/09/12 11:22:34;;;;;;;1.97;1.50;;;12.70;99.90;;;;;;5073934;28;20175;-67
2022/09/12 11:25:12;;;;;;;3.20;2.37;;;12.80;99.90;;;;;;5073550;28;20226;-67
2022/09/12 11:27:39;;;;;;;3.63;1.63;;;12.80;99.90;;;;;;5073729;28;20209;-66
2022/09/12 11:30:30;;;;;;;3.33;1.60;;;12.90;99.90;;;;;;5073754;28;20173;-71
2022/09/12 11:33:08;;;;;;;2.83;1.10;;;12.90;99.90;;;;;;5071314;28;20196;-70
2022/09/12 11:35:48;;;;;;;2.03;1.30;;;12.80;99.90;;;;;;5073330;28;20181;-68
2022/09/12 11:38:18;;;;;;;4.30;1.03;;;12.80;99.90;;;;;;5073615;28;20193;-70
2022/09/12 11:41:07;;;;;;;3.63;1.20;;;12.70;99.90;;;;;;5072879;28;20264;-70
2022/09/12 11:43:43;;;;;;;3.37;1.60;;;12.80;99.90;;;;;;5073586;28;20211;-70
2022/09/12 11:46:24;;;;;;;1.53;1.20;;;12.90;99.90;;;;;;5073434;28;20639;-71
2022/09/12 11:49:04;;;;;;;2.20;1.20;;;13.00;99.90;;;;;;5073581;28;20179;-67
2022/09/12 11:51:57;;;;;;;1.70;1.23;;;12.90;99.90;;;;;;5073180;28;20644;-70
2022/09/12 11:54:24;;;;;;;4.30;1.27;;;12.80;99.90;;;;;;5072978;28;20673;-70
2022/09/12 11:57:03;;;;;;;2.17;1.10;;;12.70;99.90;;;;;;5072901;28;20184;-66
2022/09/12 11:59:54;;;;;;;3.37;1.13;;;12.60;99.90;;;;;;5063106;28;20540;-67
2022/09/12 12:02:30;;;;;;;2.13;1.43;;;12.60;99.90;;;;;;5058193;28;20182;-67
2022/09/12 12:05:04;;;;;;;2.30;1.20;;;12.50;99.90;;;;;;5062800;28;20180;-68
2022/09/12 12:07:58;;;;;;;2.53;1.33;;;12.40;99.90;;;;;;5061699;28;20299;-70
2022/09/12 12:10:29;;;;;;;2.03;1.20;;;12.30;99.90;;;;;;5065153;28;20616;-71
2022/09/12 12:12:58;;;;;;;4.47;1.50;;;12.10;99.90;;;;;;5057287;28;20635;-67
2022/09/12 12:15:27;;;;;;;1.43;1.00;;;12.10;99.90;;;;;;5061142;28;20530;-72
2022/09/12 12:18:07;;;;;;;2.27;1.50;;;12.10;99.90;;;;;;5069752;28;20186;-71
2022/09/12 12:20:35;;;;;;;2.10;1.40;;;12.00;99.90;;;;;;5073183;28;20188;-71
2022/09/12 12:23:03;;;;;;;5.87;1.50;;;11.90;99.90;;;;;;5075658;28;20182;-69
2022/09/12 12:25:53;;;;;;;2.43;1.17;;;11.90;99.90;;;;;;5075490;28;20183;-70
2022/09/12 12:28:49;;;;;;;1.90;1.47;;;11.80;99.90;;;;;;5076679;28;20222;-72
2022/09/12 12:31:18;;;;;;;2.53;1.50;;;11.70;99.90;;;;;;5056713;28;20188;-68
2022/09/12 12:33:45;;;;;;;2.97;1.80;;;11.70;99.90;;;;;;5056535;28;20261;-68
2022/09/12 12:36:37;;;;;;;3.83;1.87;;;11.60;99.90;;;;;;5056574;28;20253;-68
2022/09/12 12:39:31;;;;;;;3.03;2.07;;;11.60;99.90;;;;;;5059645;28;20191;-70
2022/09/12 12:42:05;;;;;;;4.13;2.07;;;11.50;99.90;;;;;;5075848;28;20212;-68
2022/09/12 12:44:44;;;;;;;7.37;2.30;;;11.50;99.90;;;;;;5076427;28;20249;-67
2022/09/12 12:47:24;;;;;;;5.27;2.13;;;11.40;99.90;;;;;;5076333;28;20212;-69
2022/09/12 12:50:05;;;;;;;4.40;2.30;;;11.40;99.90;;;;;;5075924;28;20185;-68
2022/09/12 12:52:48;;;;;;;5.13;1.80;;;11.40;99.90;;;;;;5076210;28;20188;-70
2022/09/12 12:55:25;;;;;;;2.70;1.50;;;11.40;99.90;;;;;;5076204;28;20173;-67
2022/09/12 12:57:57;;;;;;;7.00;2.10;;;11.40;99.90;;;;;;5076516;28;20182;-67
2022/09/12 13:00:30;;;;;;;1.93;1.63;;;11.30;99.90;;;;;;5075655;28;20184;-70
2022/09/12 13:03:01;;;;;;;2.40;1.87;;;11.30;99.90;;;;;;5076939;28;20186;-71
2022/09/12 13:05:38;;;;;;;2.17;1.77;;;11.20;99.90;;;;;;5085139;28;20299;-70
2022/09/12 13:08:17;;;;;;;2.43;1.73;;;11.20;99.90;;;;;;5096854;28;20241;-69
2022/09/12 13:11:11;;;;;;;4.90;1.80;;;11.10;99.90;;;;;;5096475;28;20259;-67
2022/09/12 13:13:42;;;;;;;2.33;1.93;;;11.10;99.90;;;;;;5075365;28;20209;-71
2022/09/12 13:16:27;;;;;;;2.10;1.70;;;11.10;99.90;;;;;;5075922;28;20262;-67
2022/09/12 13:18:56;;;;;;;2.83;1.80;;;11.10;99.90;;;;;;5055713;28;20209;-70
2022/09/12 13:21:24;;;;;;;2.63;1.40;;;11.10;99.90;;;;;;5071934;28;20184;-66
2022/09/12 13:24:03;;;;;;;2.20;1.70;;;11.10;99.90;;;;;;5075406;28;20228;-70
2022/09/12 13:26:40;;;;;;;2.90;1.30;;;11.00;99.90;;;;;;5075513;28;20258;-69
2022/09/12 13:29:25;;;;;;;2.93;1.50;;;11.00;99.90;;;;;;5075575;28;20207;-70